createdAt,value
2023-01-21T00:00:17.629Z,1.90
2023-01-21T00:02:49.703Z,2.20
2023-01-21T00:05:21.560Z,2.00
2023-01-21T00:07:53.411Z,2.10
2023-01-21T00:10:25.264Z,2.35
2023-01-21T00:12:57.167Z,2.30
2023-01-21T00:15:29.126Z,2.17
2023-01-21T00:18:01.114Z,1.60
2023-01-21T00:20:33.203Z,2.10
2023-01-21T00:23:05.080Z,1.90
2023-01-21T00:25:36.922Z,1.83
2023-01-21T00:28:08.755Z,2.28
2023-01-21T00:30:41.763Z,1.50
2023-01-21T00:33:13.699Z,1.10
2023-01-21T00:35:46.510Z,1.10
2023-01-21T00:38:18.347Z,1.13
2023-01-21T00:40:50.148Z,0.93
2023-01-21T00:43:22.003Z,1.17
2023-01-21T00:45:53.898Z,1.10
2023-01-21T00:48:26.247Z,1.20
2023-01-21T00:51:01.823Z,0.73
2023-01-21T00:53:36.242Z,0.90
2023-01-21T00:56:13.210Z,1.05
2023-01-21T00:58:45.385Z,1.17
2023-01-21T01:01:20.463Z,1.10
2023-01-21T01:03:52.475Z,1.15
2023-01-21T01:06:24.586Z,1.20
2023-01-21T01:08:58.586Z,0.80
2023-01-21T01:11:31.607Z,0.80
2023-01-21T01:14:03.515Z,1.00
2023-01-21T01:16:35.403Z,0.80
2023-01-21T01:19:07.331Z,0.70
2023-01-21T01:21:39.162Z,0.60
2023-01-21T01:24:11.139Z,0.75
2023-01-21T01:26:42.996Z,0.80
2023-01-21T01:29:14.922Z,0.80
2023-01-21T01:31:46.820Z,0.80
2023-01-21T01:34:18.623Z,0.88
2023-01-21T01:36:50.606Z,0.50
2023-01-21T01:39:22.549Z,0.60
2023-01-21T01:41:54.472Z,0.70
2023-01-21T01:45:02.129Z,0.77
2023-01-21T01:47:42.453Z,0.63
2023-01-21T01:50:18.269Z,0.80
2023-01-21T01:52:50.391Z,0.70
2023-01-21T01:55:23.241Z,0.50
2023-01-21T01:57:56.163Z,0.73
2023-01-21T02:00:28.345Z,0.80
2023-01-21T02:03:18.988Z,0.90
2023-01-21T02:05:51.570Z,0.68
2023-01-21T02:08:26.688Z,0.80
2023-01-21T02:10:58.547Z,0.90
2023-01-21T02:13:33.262Z,0.43
2023-01-21T02:16:23.627Z,0.60
2023-01-21T02:19:17.093Z,0.68
2023-01-21T02:21:51.770Z,0.63
2023-01-21T02:24:54.106Z,0.60
2023-01-21T02:27:53.661Z,0.60
2023-01-21T02:30:34.062Z,0.63
2023-01-21T02:33:13.500Z,0.90
2023-01-21T02:36:16.288Z,0.70
2023-01-21T02:39:06.738Z,0.60
2023-01-21T02:42:02.809Z,0.55
2023-01-21T02:45:00.690Z,0.60
2023-01-21T02:47:51.035Z,0.60
2023-01-21T02:50:31.959Z,0.47
2023-01-21T02:53:04.980Z,0.65
2023-01-21T02:55:38.749Z,0.40
2023-01-21T02:58:16.803Z,0.40
2023-01-21T03:01:11.104Z,0.47
2023-01-21T03:03:48.819Z,0.50
2023-01-21T03:06:49.148Z,0.40
2023-01-21T03:09:29.706Z,0.52
2023-01-21T03:12:13.188Z,0.60
2023-01-21T03:15:25.847Z,0.50
2023-01-21T03:18:10.567Z,0.50
2023-01-21T03:20:50.753Z,0.50
2023-01-21T03:23:47.316Z,0.50
2023-01-21T03:26:26.443Z,0.45
2023-01-21T03:29:03.058Z,0.40
2023-01-21T03:31:40.446Z,0.40
2023-01-21T03:34:15.236Z,0.38
2023-01-21T03:37:07.382Z,0.55
2023-01-21T03:39:48.791Z,0.50
2023-01-21T03:42:22.813Z,0.40
2023-01-21T03:44:55.184Z,0.30
2023-01-21T03:47:34.693Z,0.50
2023-01-21T03:50:12.917Z,0.50
2023-01-21T03:52:45.831Z,0.30
2023-01-21T03:55:18.952Z,0.50
2023-01-21T03:57:50.873Z,0.30
2023-01-21T04:00:22.873Z,0.60
2023-01-21T04:02:54.679Z,0.35
2023-01-21T04:05:26.600Z,0.47
2023-01-21T04:07:58.487Z,0.45
2023-01-21T04:10:30.362Z,0.43
2023-01-21T04:13:02.205Z,0.40
2023-01-21T04:15:34.172Z,0.40
2023-01-21T04:18:06.074Z,0.52
2023-01-21T04:20:37.973Z,0.30
2023-01-21T04:23:09.845Z,0.63
2023-01-21T04:25:42.268Z,0.40
2023-01-21T04:28:14.516Z,0.40
2023-01-21T04:30:49.761Z,0.50
2023-01-21T04:33:22.127Z,0.50
2023-01-21T04:36:03.056Z,0.47
2023-01-21T04:38:34.891Z,0.45
2023-01-21T04:41:06.796Z,0.40
2023-01-21T04:44:55.400Z,0.40
2023-01-21T04:47:28.323Z,0.40
2023-01-21T04:50:00.317Z,0.90
2023-01-21T04:52:32.202Z,0.75
2023-01-21T04:55:07.038Z,0.70
2023-01-21T04:57:38.935Z,0.40
2023-01-21T05:00:11.180Z,0.50
2023-01-21T05:02:43.219Z,0.50
2023-01-21T05:05:15.197Z,0.60
2023-01-21T05:07:47.245Z,0.50
2023-01-21T05:10:19.505Z,0.60
2023-01-21T05:12:51.396Z,0.40
2023-01-21T05:15:23.720Z,0.30
2023-01-21T05:17:55.730Z,0.50
2023-01-21T05:20:27.768Z,0.50
2023-01-21T05:22:59.595Z,0.47
2023-01-21T05:25:31.443Z,0.50
2023-01-21T05:28:04.601Z,0.85
2023-01-21T05:30:38.536Z,0.60
2023-01-21T05:33:12.059Z,0.45
2023-01-21T05:35:44.167Z,0.47
2023-01-21T05:38:16.038Z,0.68
2023-01-21T05:40:48.009Z,0.55
2023-01-21T05:43:19.835Z,0.47
2023-01-21T05:45:51.920Z,0.73
2023-01-21T05:48:23.875Z,0.50
2023-01-21T05:50:58.210Z,0.50
2023-01-21T05:53:30.246Z,0.60
2023-01-21T05:56:02.409Z,0.52
2023-01-21T05:58:34.333Z,0.40
2023-01-21T06:01:06.267Z,0.50
2023-01-21T06:03:38.367Z,0.80
2023-01-21T06:06:10.800Z,0.50
2023-01-21T06:08:42.651Z,0.60
2023-01-21T06:11:14.523Z,0.60
2023-01-21T06:13:46.598Z,0.50
2023-01-21T06:16:18.461Z,0.50
2023-01-21T06:18:50.425Z,0.50
2023-01-21T06:21:22.271Z,0.70
2023-01-21T06:23:54.235Z,0.50
2023-01-21T06:26:27.189Z,0.60
2023-01-21T06:28:59.179Z,0.47
2023-01-21T06:31:31.211Z,0.60
2023-01-21T06:34:03.207Z,0.50
2023-01-21T06:36:36.361Z,0.50
2023-01-21T06:39:09.803Z,0.52
2023-01-21T06:41:41.613Z,0.40
2023-01-21T06:44:13.615Z,0.50
2023-01-21T06:46:52.154Z,0.60
2023-01-21T06:49:31.522Z,0.60
2023-01-21T06:52:04.049Z,0.60
2023-01-21T06:54:36.088Z,0.65
2023-01-21T06:57:07.930Z,0.60
2023-01-21T06:59:39.996Z,0.63
2023-01-21T07:02:13.275Z,0.70
2023-01-21T07:04:45.424Z,1.10
2023-01-21T07:07:17.568Z,1.20
2023-01-21T07:09:49.407Z,1.00
2023-01-21T07:12:21.371Z,0.60
2023-01-21T07:14:53.227Z,1.05
2023-01-21T07:17:25.155Z,0.75
2023-01-21T07:19:57.046Z,0.70
2023-01-21T07:22:28.867Z,1.00
2023-01-21T07:25:00.692Z,1.10
2023-01-21T07:27:32.552Z,0.80
2023-01-21T07:30:04.926Z,1.10
2023-01-21T07:32:36.734Z,0.88
2023-01-21T07:35:09.005Z,0.90
2023-01-21T07:37:41.371Z,1.00
2023-01-21T07:40:13.592Z,0.85
2023-01-21T07:42:51.830Z,0.70
2023-01-21T07:45:24.816Z,0.90
2023-01-21T07:47:56.711Z,0.68
2023-01-21T07:50:28.600Z,0.90
2023-01-21T07:53:00.521Z,0.90
2023-01-21T07:55:32.451Z,1.10
2023-01-21T07:58:04.357Z,1.00
2023-01-21T08:00:36.213Z,0.98
2023-01-21T08:03:08.060Z,1.10
2023-01-21T08:05:40.105Z,1.70
2023-01-21T08:08:11.948Z,1.48
2023-01-21T08:10:43.973Z,1.23
2023-01-21T08:13:15.768Z,1.55
2023-01-21T08:15:55.580Z,1.17
2023-01-21T08:18:27.487Z,1.25
2023-01-21T08:21:00.149Z,1.40
2023-01-21T08:23:32.135Z,1.20
2023-01-21T08:26:06.604Z,1.20
2023-01-21T08:28:38.420Z,1.20
2023-01-21T08:31:13.122Z,2.10
2023-01-21T08:33:45.002Z,1.10
2023-01-21T08:36:16.966Z,1.10
2023-01-21T08:38:52.375Z,1.70
2023-01-21T08:41:25.328Z,1.58
2023-01-21T08:43:57.182Z,0.90
2023-01-21T08:46:29.075Z,1.10
2023-01-21T08:49:01.074Z,0.90
2023-01-21T08:51:32.953Z,0.90
2023-01-21T08:54:05.248Z,0.90
2023-01-21T08:56:37.215Z,1.15
2023-01-21T08:59:09.435Z,1.00
2023-01-21T09:01:41.309Z,0.80
2023-01-21T09:04:13.176Z,0.90
2023-01-21T09:06:44.985Z,1.42
2023-01-21T09:09:16.880Z,1.00
2023-01-21T09:11:48.864Z,1.00
2023-01-21T09:14:21.552Z,0.90
2023-01-21T09:16:55.854Z,1.50
2023-01-21T09:19:28.229Z,1.20
2023-01-21T09:22:00.140Z,1.02
2023-01-21T09:24:32.474Z,1.35
2023-01-21T09:27:07.111Z,1.20
2023-01-21T09:29:38.978Z,1.05
2023-01-21T09:32:11.047Z,1.20
2023-01-21T09:34:42.885Z,1.13
2023-01-21T09:37:14.739Z,0.95
2023-01-21T09:39:48.376Z,0.90
2023-01-21T09:42:25.462Z,1.50
2023-01-21T09:44:59.920Z,1.10
2023-01-21T09:47:39.510Z,1.00
2023-01-21T09:50:14.860Z,1.10
2023-01-21T09:52:52.685Z,0.82
2023-01-21T09:55:34.603Z,0.90
2023-01-21T09:58:30.960Z,1.40
2023-01-21T10:01:14.983Z,2.50
2023-01-21T10:03:57.804Z,3.97
2023-01-21T10:07:04.204Z,1.52
2023-01-21T10:09:57.978Z,1.38
2023-01-21T10:13:14.373Z,1.23
2023-01-21T10:16:13.031Z,1.88
2023-01-21T10:18:48.724Z,2.40
2023-01-21T10:21:33.187Z,1.20
2023-01-21T10:24:21.100Z,0.75
2023-01-21T10:26:54.097Z,0.50
2023-01-21T10:29:27.553Z,1.10
2023-01-21T10:32:04.115Z,0.60
2023-01-21T10:34:50.721Z,0.40
2023-01-21T10:37:43.005Z,0.57
2023-01-21T10:40:50.055Z,0.70
2023-01-21T10:43:46.066Z,0.60
2023-01-21T10:46:25.123Z,0.68
2023-01-21T10:49:44.241Z,0.60
2023-01-21T10:52:22.781Z,0.70
2023-01-21T10:55:13.355Z,0.40
2023-01-21T10:58:14.075Z,0.77
2023-01-21T11:00:49.803Z,0.70
2023-01-21T11:03:38.864Z,0.90
2023-01-21T11:06:13.523Z,0.70
2023-01-21T11:08:49.610Z,1.33
2023-01-21T11:11:27.790Z,0.73
2023-01-21T11:14:00.335Z,0.90
2023-01-21T11:16:38.154Z,0.90
2023-01-21T11:19:31.043Z,0.57
2023-01-21T11:22:04.315Z,0.88
2023-01-21T11:24:46.773Z,0.50
2023-01-21T11:27:28.396Z,0.60
2023-01-21T11:30:00.573Z,0.60
2023-01-21T11:32:33.044Z,0.70
2023-01-21T11:35:23.055Z,0.60
2023-01-21T11:37:55.044Z,0.50
2023-01-21T11:40:27.057Z,0.43
2023-01-21T11:42:58.838Z,0.50
2023-01-21T11:45:33.238Z,0.60
2023-01-21T11:48:23.387Z,0.50
2023-01-21T11:51:08.170Z,0.40
2023-01-21T11:53:41.303Z,0.70
2023-01-21T11:56:15.743Z,0.63
2023-01-21T11:58:47.613Z,0.45
2023-01-21T12:01:22.080Z,0.50
2023-01-21T12:03:59.801Z,0.60
2023-01-21T12:06:32.122Z,0.82
2023-01-21T12:09:07.864Z,1.23
2023-01-21T12:11:39.776Z,2.08
2023-01-21T12:14:30.738Z,2.35
2023-01-21T12:17:16.414Z,2.50
2023-01-21T12:20:05.447Z,2.08
2023-01-21T12:23:03.562Z,2.20
2023-01-21T12:25:58.995Z,2.72
2023-01-21T12:28:53.883Z,2.10
2023-01-21T12:31:42.815Z,2.60
2023-01-21T12:34:22.372Z,2.20
2023-01-21T12:37:38.567Z,1.98
2023-01-21T12:40:22.209Z,2.35
2023-01-21T12:42:58.172Z,2.25
2023-01-21T12:45:39.957Z,2.63
2023-01-21T12:48:30.694Z,4.75
2023-01-21T12:51:14.580Z,2.25
2023-01-21T12:54:20.368Z,2.38
2023-01-21T12:57:18.468Z,2.28
2023-01-21T13:00:01.485Z,2.08
2023-01-21T13:02:49.350Z,1.90
2023-01-21T13:05:53.888Z,2.20
2023-01-21T13:08:55.623Z,3.25
2023-01-21T13:14:08.379Z,2.42
2023-01-21T13:16:48.165Z,2.20
2023-01-21T13:19:20.528Z,3.05
2023-01-21T13:22:06.262Z,3.28
2023-01-21T13:25:05.717Z,3.88
2023-01-21T13:27:51.862Z,2.00
2023-01-21T13:30:39.949Z,2.38
2023-01-21T13:33:36.150Z,2.88
2023-01-21T13:36:36.069Z,4.38
2023-01-21T13:39:40.627Z,3.35
2023-01-21T13:42:37.118Z,3.75
2023-01-21T13:45:25.231Z,4.15
2023-01-21T13:48:17.081Z,2.78
2023-01-21T13:51:08.441Z,3.45
2023-01-21T13:53:50.521Z,3.90
2023-01-21T13:56:40.132Z,4.13
2023-01-21T13:59:38.427Z,5.30
2023-01-21T14:02:37.145Z,6.03
2023-01-21T14:05:19.050Z,6.28
2023-01-21T14:08:02.168Z,6.80
2023-01-21T14:10:40.590Z,6.80
2023-01-21T14:13:27.491Z,6.82
2023-01-21T14:16:27.261Z,7.07
2023-01-21T14:19:28.241Z,6.68
2023-01-21T14:22:26.504Z,6.80
2023-01-21T14:25:19.608Z,6.95
2023-01-21T14:27:51.520Z,6.53
2023-01-21T14:30:37.363Z,7.22
2023-01-21T14:33:36.618Z,5.65
2023-01-21T14:36:15.596Z,5.57
2023-01-21T14:39:03.628Z,6.45
2023-01-21T14:41:54.805Z,6.55
2023-01-21T14:44:39.005Z,7.15
2023-01-21T14:47:16.753Z,6.55
2023-01-21T14:49:53.877Z,5.93
2023-01-21T14:52:54.921Z,6.40
2023-01-21T14:55:31.409Z,5.47
2023-01-21T14:58:03.669Z,5.20
2023-01-21T15:00:37.211Z,4.93
2023-01-21T15:03:27.554Z,7.05
2023-01-21T15:06:07.847Z,8.63
2023-01-21T15:08:47.681Z,5.38
2023-01-21T15:11:40.357Z,4.28
2023-01-21T15:14:22.428Z,3.72
2023-01-21T15:16:54.735Z,3.70
2023-01-21T15:19:35.047Z,2.97
2023-01-21T15:22:19.456Z,2.35
2023-01-21T15:25:19.034Z,2.25
2023-01-21T15:28:44.323Z,2.75
2023-01-21T15:31:22.142Z,1.92
2023-01-21T15:33:58.640Z,19.88
2023-01-21T15:36:34.769Z,3.72
2023-01-21T15:39:25.269Z,2.97
2023-01-21T15:42:09.300Z,1.63
2023-01-21T15:44:50.026Z,2.28
2023-01-21T15:47:51.137Z,2.50
2023-01-21T15:50:27.824Z,2.20
2023-01-21T15:53:28.565Z,3.60
2023-01-21T15:56:06.344Z,2.30
2023-01-21T15:58:56.174Z,2.50
2023-01-21T16:01:35.539Z,2.60
2023-01-21T16:04:25.668Z,3.35
2023-01-21T16:07:35.299Z,2.63
2023-01-21T16:10:20.269Z,3.20
2023-01-21T16:13:40.094Z,4.53
2023-01-21T16:16:33.266Z,6.15
2023-01-21T16:19:16.996Z,11.13
2023-01-21T16:21:55.543Z,5.75
2023-01-21T16:24:29.551Z,5.05
2023-01-21T16:27:23.827Z,3.38
2023-01-21T16:30:21.677Z,22.92
2023-01-21T16:33:13.256Z,53.70
2023-01-21T16:35:50.389Z,26.42
2023-01-21T16:38:25.876Z,8.00
2023-01-21T16:41:06.475Z,6.55
2023-01-21T16:43:54.354Z,9.60
2023-01-21T16:46:34.925Z,8.77
2023-01-21T16:49:14.788Z,7.32
2023-01-21T16:51:58.061Z,7.35
2023-01-21T16:54:33.612Z,6.75
2023-01-21T16:57:18.824Z,8.38
2023-01-21T16:59:52.883Z,15.70
2023-01-21T17:02:28.175Z,12.02
2023-01-21T17:05:05.345Z,10.50
2023-01-21T17:07:47.413Z,7.88
2023-01-21T17:10:25.293Z,5.45
2023-01-21T17:13:01.127Z,4.90
2023-01-21T17:15:38.613Z,7.15
2023-01-21T17:18:18.129Z,5.75
2023-01-21T17:20:54.620Z,4.85
2023-01-21T17:23:34.422Z,5.75
2023-01-21T17:26:32.382Z,6.78
2023-01-21T17:29:28.454Z,6.20
2023-01-21T17:32:22.323Z,6.38
2023-01-21T17:35:14.065Z,7.28
2023-01-21T17:37:53.796Z,6.80
2023-01-21T17:40:58.680Z,7.22
2023-01-21T17:43:30.717Z,7.55
2023-01-21T17:46:03.603Z,8.10
2023-01-21T17:48:39.656Z,12.20
2023-01-21T17:51:23.959Z,10.45
2023-01-21T17:54:03.614Z,8.85
2023-01-21T17:56:39.375Z,9.80
2023-01-21T17:59:41.645Z,7.35
2023-01-21T18:02:16.201Z,9.15
2023-01-21T18:04:48.684Z,8.45
2023-01-21T18:07:27.407Z,9.10
2023-01-21T18:10:02.668Z,10.35
2023-01-21T18:12:34.532Z,11.27
2023-01-21T18:15:07.115Z,11.68
2023-01-21T18:17:45.447Z,11.18
2023-01-21T18:20:28.732Z,17.10
2023-01-21T18:23:00.699Z,13.68
2023-01-21T18:25:32.589Z,11.63
2023-01-21T18:28:06.747Z,9.88
2023-01-21T18:30:38.669Z,10.77
2023-01-21T18:33:14.963Z,12.88
2023-01-21T18:35:48.521Z,30.08
2023-01-21T18:38:30.228Z,22.27
2023-01-21T18:41:04.179Z,57.92
2023-01-21T18:43:36.040Z,57.03
2023-01-21T18:46:13.142Z,31.63
2023-01-21T18:48:45.036Z,49.80
2023-01-21T18:51:17.206Z,43.05
2023-01-21T18:53:49.147Z,46.85
2023-01-21T18:56:22.050Z,25.00
2023-01-21T18:58:54.053Z,15.52
2023-01-21T19:01:29.083Z,20.95
2023-01-21T19:04:04.221Z,17.55
2023-01-21T19:06:36.140Z,20.10
2023-01-21T19:09:23.502Z,9.20
2023-01-21T19:11:55.582Z,7.80
2023-01-21T19:14:27.556Z,8.60
2023-01-21T19:16:59.424Z,8.40
2023-01-21T19:19:31.273Z,9.63
2023-01-21T19:22:03.185Z,8.38
2023-01-21T19:24:35.139Z,9.68
2023-01-21T19:27:14.489Z,10.43
2023-01-21T19:29:46.341Z,10.98
2023-01-21T19:32:18.586Z,9.70
2023-01-21T19:34:50.903Z,8.25
2023-01-21T19:37:24.626Z,8.73
2023-01-21T19:39:56.533Z,9.48
2023-01-21T19:42:28.368Z,8.88
2023-01-21T19:45:00.427Z,9.07
2023-01-21T19:47:32.410Z,8.13
2023-01-21T19:50:06.452Z,7.85
2023-01-21T19:52:38.341Z,6.93
2023-01-21T19:55:17.869Z,8.32
2023-01-21T19:58:01.089Z,8.60
2023-01-21T20:00:36.519Z,8.43
2023-01-21T20:03:11.872Z,8.57
2023-01-21T20:05:43.992Z,8.60
2023-01-21T20:08:20.731Z,8.65
2023-01-21T20:10:52.828Z,10.85
2023-01-21T20:13:26.077Z,10.23
2023-01-21T20:16:04.508Z,10.82
2023-01-21T20:18:36.563Z,9.77
2023-01-21T20:21:08.366Z,10.93
2023-01-21T20:23:40.326Z,9.57
2023-01-21T20:26:19.235Z,10.60
2023-01-21T20:28:51.545Z,9.15
2023-01-21T20:31:23.540Z,10.43
2023-01-21T20:33:55.644Z,8.32
2023-01-21T20:36:27.736Z,7.10
2023-01-21T20:38:59.631Z,7.38
2023-01-21T20:41:31.476Z,7.35
2023-01-21T20:44:03.658Z,6.68
2023-01-21T20:46:35.660Z,6.72
2023-01-21T20:49:11.021Z,7.88
2023-01-21T20:51:42.928Z,7.20
2023-01-21T20:54:14.766Z,6.03
2023-01-21T20:56:46.614Z,5.38
2023-01-21T20:59:18.479Z,6.35
2023-01-21T21:01:51.565Z,6.13
2023-01-21T21:04:24.917Z,6.50
2023-01-21T21:06:56.745Z,6.18
2023-01-21T21:09:28.887Z,6.03
2023-01-21T21:12:00.722Z,5.60
2023-01-21T21:14:32.531Z,5.53
2023-01-21T21:17:08.670Z,5.95
2023-01-21T21:19:40.636Z,5.50
2023-01-21T21:22:14.157Z,6.00
2023-01-21T21:24:46.044Z,5.90
2023-01-21T21:27:18.011Z,5.72
2023-01-21T21:29:51.479Z,5.70
2023-01-21T21:32:23.283Z,5.10
2023-01-21T21:34:55.267Z,5.07
2023-01-21T21:37:27.103Z,5.10
2023-01-21T21:39:58.973Z,6.05
2023-01-21T21:42:49.218Z,5.28
2023-01-21T21:45:21.016Z,5.22
2023-01-21T21:48:11.296Z,5.68
2023-01-21T21:50:43.344Z,5.72
2023-01-21T21:53:15.216Z,5.78
2023-01-21T21:55:47.113Z,5.97
2023-01-21T21:58:18.939Z,6.22
2023-01-21T22:00:54.154Z,5.20
2023-01-21T22:03:26.137Z,5.60
2023-01-21T22:06:01.799Z,5.65
2023-01-21T22:08:35.430Z,6.07
2023-01-21T22:11:10.012Z,5.93
2023-01-21T22:13:43.583Z,5.13
2023-01-21T22:16:21.830Z,5.25
2023-01-21T22:18:54.524Z,4.63
2023-01-21T22:21:34.704Z,5.03
2023-01-21T22:24:08.159Z,4.85
2023-01-21T22:26:40.178Z,5.53
2023-01-21T22:29:12.541Z,6.57
2023-01-21T22:31:44.536Z,4.97
2023-01-21T22:34:16.513Z,4.60
2023-01-21T22:36:48.487Z,4.40
2023-01-21T22:39:20.392Z,5.22
2023-01-21T22:41:55.249Z,5.00
2023-01-21T22:44:27.337Z,5.18
2023-01-21T22:46:59.185Z,5.03
2023-01-21T22:49:31.025Z,4.85
2023-01-21T22:52:02.907Z,4.80
2023-01-21T22:54:34.699Z,4.32
2023-01-21T22:57:06.672Z,4.57
2023-01-21T22:59:39.965Z,4.50
2023-01-21T23:02:12.376Z,4.65
2023-01-21T23:04:44.863Z,4.80
2023-01-21T23:07:16.858Z,4.68
2023-01-21T23:09:49.119Z,4.47
2023-01-21T23:12:21.051Z,5.10
2023-01-21T23:14:52.953Z,4.15
2023-01-21T23:17:24.866Z,4.28
2023-01-21T23:19:56.656Z,4.40
2023-01-21T23:22:28.554Z,5.22
2023-01-21T23:25:00.629Z,4.72
2023-01-21T23:27:32.448Z,4.13
2023-01-21T23:30:05.379Z,4.40
2023-01-21T23:32:37.216Z,4.40
2023-01-21T23:35:09.394Z,4.40
2023-01-21T23:37:41.374Z,4.28
2023-01-21T23:40:13.771Z,3.70
2023-01-21T23:42:49.379Z,3.65
2023-01-21T23:45:21.308Z,3.60
2023-01-21T23:47:54.424Z,4.05
2023-01-21T23:50:26.261Z,4.03
2023-01-21T23:52:58.264Z,3.83
2023-01-21T23:55:30.099Z,4.10
2023-01-21T23:58:01.938Z,3.58
